Shacklefords, Virginia
Current Conditions -  °F | °C
As of 9:35 AM on Thursday 30 Oct 2014 (Local Time) from KFYJ Reporting Station
Clear Clear  
Wind Chill: 56°   Ceiling: Unl
Heat Index: 56°   Visibility: 10mi
Dew Point: 47°   Wind: 7mph
Humidity: 74%   Direction: 350°N
Pressure: 30.07"   Gusts: NA
Location:  37.55°N, 76.73°W
Report Text: KFYJ 301335Z AUTO 35006KT 10SM CLR 13/09 A3007 RMK AO2 T01310086
Loading
Personal Weather Stations






























Interactive Weather Map
Tropical Storm Tracking
New forecast layout! Learn more

10-Day Weather Forecast

Advertisements
Track Severe Weather on mobile